sensor_id;sensor_type;location;lat;lon;timestamp;P1;durP1;ratioP1;P2;durP2;ratioP2
1935;SDS011;969;49.892;10.896;2024-02-14T00:01:30;5.10;;;4.17;;
1935;SDS011;969;49.892;10.896;2024-02-14T00:03:56;4.90;;;3.90;;
1935;SDS011;969;49.892;10.896;2024-02-14T00:06:22;5.73;;;4.20;;
1935;SDS011;969;49.892;10.896;2024-02-14T00:08:48;4.50;;;3.53;;
1935;SDS011;969;49.892;10.896;2024-02-14T00:11:14;5.20;;;3.83;;
1935;SDS011;969;49.892;10.896;2024-02-14T00:13:40;5.20;;;4.10;;
1935;SDS011;969;49.892;10.896;2024-02-14T00:16:06;6.20;;;4.47;;
1935;SDS011;969;49.892;10.896;2024-02-14T00:18:31;5.20;;;4.50;;
1935;SDS011;969;49.892;10.896;2024-02-14T00:20:57;5.10;;;3.63;;
1935;SDS011;969;49.892;10.896;2024-02-14T00:23:23;5.17;;;4.10;;
1935;SDS011;969;49.892;10.896;2024-02-14T00:25:49;6.70;;;4.20;;
1935;SDS011;969;49.892;10.896;2024-02-14T00:28:14;6.20;;;4.20;;
1935;SDS011;969;49.892;10.896;2024-02-14T00:30:40;4.30;;;3.60;;
1935;SDS011;969;49.892;10.896;2024-02-14T00:33:06;5.00;;;4.03;;
1935;SDS011;969;49.892;10.896;2024-02-14T00:35:31;6.20;;;4.00;;
1935;SDS011;969;49.892;10.896;2024-02-14T00:37:57;5.23;;;4.27;;
1935;SDS011;969;49.892;10.896;2024-02-14T00:40:22;4.17;;;3.77;;
1935;SDS011;969;49.892;10.896;2024-02-14T00:42:48;6.97;;;4.33;;
1935;SDS011;969;49.892;10.896;2024-02-14T00:45:14;4.53;;;3.77;;
1935;SDS011;969;49.892;10.896;2024-02-14T00:47:40;4.47;;;4.07;;
1935;SDS011;969;49.892;10.896;2024-02-14T00:50:05;4.80;;;3.80;;
1935;SDS011;969;49.892;10.896;2024-02-14T00:52:32;8.43;;;4.40;;
1935;SDS011;969;49.892;10.896;2024-02-14T00:54:57;4.70;;;3.50;;
1935;SDS011;969;49.892;10.896;2024-02-14T00:57:23;4.63;;;4.00;;
1935;SDS011;969;49.892;10.896;2024-02-14T00:59:52;5.03;;;4.20;;
1935;SDS011;969;49.892;10.896;2024-02-14T01:02:18;4.90;;;4.10;;
1935;SDS011;969;49.892;10.896;2024-02-14T01:04:44;3.77;;;3.40;;
1935;SDS011;969;49.892;10.896;2024-02-14T01:07:09;4.20;;;3.80;;
1935;SDS011;969;49.892;10.896;2024-02-14T01:09:35;4.73;;;3.77;;
1935;SDS011;969;49.892;10.896;2024-02-14T01:12:01;5.20;;;3.87;;
1935;SDS011;969;49.892;10.896;2024-02-14T01:14:27;4.40;;;3.40;;
1935;SDS011;969;49.892;10.896;2024-02-14T01:16:53;4.67;;;3.90;;
1935;SDS011;969;49.892;10.896;2024-02-14T01:19:19;5.90;;;4.60;;
1935;SDS011;969;49.892;10.896;2024-02-14T01:21:45;4.87;;;3.80;;
1935;SDS011;969;49.892;10.896;2024-02-14T01:24:13;4.60;;;3.40;;
1935;SDS011;969;49.892;10.896;2024-02-14T01:26:39;4.57;;;3.90;;
1935;SDS011;969;49.892;10.896;2024-02-14T01:29:05;5.20;;;3.40;;
1935;SDS011;969;49.892;10.896;2024-02-14T01:31:31;4.17;;;3.47;;
1935;SDS011;969;49.892;10.896;2024-02-14T01:33:58;4.80;;;4.20;;
1935;SDS011;969;49.892;10.896;2024-02-14T01:36:24;5.03;;;3.70;;
1935;SDS011;969;49.892;10.896;2024-02-14T01:38:49;6.23;;;4.63;;
1935;SDS011;969;49.892;10.896;2024-02-14T01:41:15;4.10;;;3.63;;
1935;SDS011;969;49.892;10.896;2024-02-14T01:43:40;4.60;;;3.40;;
1935;SDS011;969;49.892;10.896;2024-02-14T01:46:06;3.63;;;3.30;;
1935;SDS011;969;49.892;10.896;2024-02-14T01:48:35;4.93;;;3.50;;
1935;SDS011;969;49.892;10.896;2024-02-14T01:51:02;5.17;;;3.87;;
1935;SDS011;969;49.892;10.896;2024-02-14T01:53:29;3.47;;;3.00;;
1935;SDS011;969;49.892;10.896;2024-02-14T01:55:59;4.23;;;3.30;;
1935;SDS011;969;49.892;10.896;2024-02-14T01:58:25;4.20;;;3.80;;
1935;SDS011;969;49.892;10.896;2024-02-14T02:00:52;3.87;;;3.47;;
1935;SDS011;969;49.892;10.896;2024-02-14T02:03:22;4.20;;;3.77;;
1935;SDS011;969;49.892;10.896;2024-02-14T02:05:48;4.57;;;3.50;;
1935;SDS011;969;49.892;10.896;2024-02-14T02:08:14;5.30;;;3.40;;
1935;SDS011;969;49.892;10.896;2024-02-14T02:10:40;4.17;;;3.00;;
1935;SDS011;969;49.892;10.896;2024-02-14T02:13:06;4.80;;;3.60;;
1935;SDS011;969;49.892;10.896;2024-02-14T02:15:33;5.40;;;3.73;;
1935;SDS011;969;49.892;10.896;2024-02-14T02:17:59;4.47;;;3.60;;
1935;SDS011;969;49.892;10.896;2024-02-14T02:20:26;4.63;;;3.90;;
1935;SDS011;969;49.892;10.896;2024-02-14T02:22:52;3.63;;;3.30;;
1935;SDS011;969;49.892;10.896;2024-02-14T02:25:18;4.10;;;3.70;;
1935;SDS011;969;49.892;10.896;2024-02-14T02:27:48;3.83;;;3.20;;
1935;SDS011;969;49.892;10.896;2024-02-14T02:30:14;4.73;;;3.33;;
1935;SDS011;969;49.892;10.896;2024-02-14T02:32:39;4.17;;;3.50;;
1935;SDS011;969;49.892;10.896;2024-02-14T02:35:07;4.00;;;3.60;;
1935;SDS011;969;49.892;10.896;2024-02-14T02:37:34;4.50;;;3.77;;
1935;SDS011;969;49.892;10.896;2024-02-14T02:40:00;4.60;;;3.80;;
1935;SDS011;969;49.892;10.896;2024-02-14T02:42:26;4.10;;;3.20;;
1935;SDS011;969;49.892;10.896;2024-02-14T02:44:52;4.47;;;2.90;;
1935;SDS011;969;49.892;10.896;2024-02-14T02:47:17;3.20;;;2.90;;
1935;SDS011;969;49.892;10.896;2024-02-14T02:49:43;4.57;;;3.30;;
1935;SDS011;969;49.892;10.896;2024-02-14T02:52:12;3.77;;;3.37;;
1935;SDS011;969;49.892;10.896;2024-02-14T02:54:38;4.70;;;3.33;;
1935;SDS011;969;49.892;10.896;2024-02-14T02:57:09;5.20;;;4.30;;
1935;SDS011;969;49.892;10.896;2024-02-14T02:59:35;4.37;;;3.97;;
1935;SDS011;969;49.892;10.896;2024-02-14T03:02:01;5.33;;;3.70;;
1935;SDS011;969;49.892;10.896;2024-02-14T03:04:27;3.57;;;2.90;;
1935;SDS011;969;49.892;10.896;2024-02-14T03:06:54;3.53;;;3.03;;
1935;SDS011;969;49.892;10.896;2024-02-14T03:09:20;3.67;;;3.10;;
1935;SDS011;969;49.892;10.896;2024-02-14T03:11:47;4.27;;;3.67;;
1935;SDS011;969;49.892;10.896;2024-02-14T03:14:13;3.70;;;2.87;;
1935;SDS011;969;49.892;10.896;2024-02-14T03:16:39;3.53;;;2.97;;
1935;SDS011;969;49.892;10.896;2024-02-14T03:19:05;3.67;;;2.90;;
1935;SDS011;969;49.892;10.896;2024-02-14T03:21:31;3.93;;;3.53;;
1935;SDS011;969;49.892;10.896;2024-02-14T03:24:01;5.07;;;3.03;;
1935;SDS011;969;49.892;10.896;2024-02-14T03:26:30;4.27;;;3.10;;
1935;SDS011;969;49.892;10.896;2024-02-14T03:28:59;4.63;;;3.07;;
1935;SDS011;969;49.892;10.896;2024-02-14T03:31:25;3.53;;;2.93;;
1935;SDS011;969;49.892;10.896;2024-02-14T03:33:51;3.33;;;2.90;;
1935;SDS011;969;49.892;10.896;2024-02-14T03:36:17;2.40;;;2.20;;
1935;SDS011;969;49.892;10.896;2024-02-14T03:38:43;4.93;;;3.17;;
1935;SDS011;969;49.892;10.896;2024-02-14T03:41:11;3.67;;;3.00;;
1935;SDS011;969;49.892;10.896;2024-02-14T03:43:38;4.60;;;3.80;;
1935;SDS011;969;49.892;10.896;2024-02-14T03:46:03;3.63;;;2.57;;
1935;SDS011;969;49.892;10.896;2024-02-14T03:48:30;4.20;;;3.47;;
1935;SDS011;969;49.892;10.896;2024-02-14T03:50:56;3.70;;;2.93;;
1935;SDS011;969;49.892;10.896;2024-02-14T03:53:22;3.40;;;2.90;;
1935;SDS011;969;49.892;10.896;2024-02-14T03:55:48;2.97;;;2.73;;
1935;SDS011;969;49.892;10.896;2024-02-14T03:58:14;4.47;;;3.27;;
1935;SDS011;969;49.892;10.896;2024-02-14T04:00:42;3.90;;;2.83;;
1935;SDS011;969;49.892;10.896;2024-02-14T04:03:11;4.13;;;3.10;;
1935;SDS011;969;49.892;10.896;2024-02-14T04:05:37;3.63;;;2.90;;
1935;SDS011;969;49.892;10.896;2024-02-14T04:08:03;4.67;;;3.10;;
1935;SDS011;969;49.892;10.896;2024-02-14T04:10:29;3.60;;;2.90;;
1935;SDS011;969;49.892;10.896;2024-02-14T04:12:54;4.10;;;3.20;;
1935;SDS011;969;49.892;10.896;2024-02-14T04:15:20;3.70;;;3.10;;
1935;SDS011;969;49.892;10.896;2024-02-14T04:17:46;3.70;;;2.80;;
1935;SDS011;969;49.892;10.896;2024-02-14T04:20:11;4.00;;;3.27;;
1935;SDS011;969;49.892;10.896;2024-02-14T04:22:37;4.40;;;3.50;;
1935;SDS011;969;49.892;10.896;2024-02-14T04:25:03;4.33;;;3.30;;
1935;SDS011;969;49.892;10.896;2024-02-14T04:27:29;3.83;;;3.00;;
1935;SDS011;969;49.892;10.896;2024-02-14T04:29:55;3.17;;;2.67;;
1935;SDS011;969;49.892;10.896;2024-02-14T04:32:20;2.60;;;2.40;;
1935;SDS011;969;49.892;10.896;2024-02-14T04:34:46;3.83;;;3.03;;
1935;SDS011;969;49.892;10.896;2024-02-14T04:37:11;3.27;;;2.50;;
1935;SDS011;969;49.892;10.896;2024-02-14T04:39:40;3.17;;;2.77;;
1935;SDS011;969;49.892;10.896;2024-02-14T04:42:07;4.47;;;3.80;;
1935;SDS011;969;49.892;10.896;2024-02-14T04:44:33;3.27;;;2.90;;
1935;SDS011;969;49.892;10.896;2024-02-14T04:46:59;3.00;;;2.40;;
1935;SDS011;969;49.892;10.896;2024-02-14T04:49:25;3.10;;;2.67;;
1935;SDS011;969;49.892;10.896;2024-02-14T04:51:51;3.27;;;2.97;;
1935;SDS011;969;49.892;10.896;2024-02-14T04:54:17;3.30;;;2.97;;
1935;SDS011;969;49.892;10.896;2024-02-14T04:56:43;4.27;;;2.67;;
1935;SDS011;969;49.892;10.896;2024-02-14T04:59:10;2.73;;;2.40;;
1935;SDS011;969;49.892;10.896;2024-02-14T05:01:36;4.43;;;3.20;;
1935;SDS011;969;49.892;10.896;2024-02-14T05:04:01;3.77;;;2.63;;
1935;SDS011;969;49.892;10.896;2024-02-14T05:06:28;2.87;;;2.50;;
1935;SDS011;969;49.892;10.896;2024-02-14T05:08:53;3.07;;;2.30;;
1935;SDS011;969;49.892;10.896;2024-02-14T05:11:19;3.97;;;3.33;;
1935;SDS011;969;49.892;10.896;2024-02-14T05:13:44;3.93;;;2.67;;
1935;SDS011;969;49.892;10.896;2024-02-14T05:16:11;3.60;;;2.60;;
1935;SDS011;969;49.892;10.896;2024-02-14T05:18:37;3.10;;;2.53;;
1935;SDS011;969;49.892;10.896;2024-02-14T05:21:06;3.20;;;2.73;;
1935;SDS011;969;49.892;10.896;2024-02-14T05:23:33;3.30;;;2.70;;
1935;SDS011;969;49.892;10.896;2024-02-14T05:26:00;2.50;;;2.27;;
1935;SDS011;969;49.892;10.896;2024-02-14T05:28:27;3.30;;;2.90;;
1935;SDS011;969;49.892;10.896;2024-02-14T05:30:53;3.10;;;2.80;;
1935;SDS011;969;49.892;10.896;2024-02-14T05:33:19;3.40;;;2.77;;
1935;SDS011;969;49.892;10.896;2024-02-14T05:35:47;3.60;;;2.97;;
1935;SDS011;969;49.892;10.896;2024-02-14T05:38:16;3.13;;;2.57;;
1935;SDS011;969;49.892;10.896;2024-02-14T05:40:44;3.00;;;2.47;;
1935;SDS011;969;49.892;10.896;2024-02-14T05:43:12;2.57;;;2.27;;
1935;SDS011;969;49.892;10.896;2024-02-14T05:45:38;3.87;;;2.50;;
1935;SDS011;969;49.892;10.896;2024-02-14T05:48:04;3.47;;;2.60;;
1935;SDS011;969;49.892;10.896;2024-02-14T05:50:30;3.13;;;2.40;;
1935;SDS011;969;49.892;10.896;2024-02-14T05:52:56;3.40;;;2.60;;
1935;SDS011;969;49.892;10.896;2024-02-14T05:55:24;3.10;;;2.63;;
1935;SDS011;969;49.892;10.896;2024-02-14T05:57:51;3.30;;;2.47;;
1935;SDS011;969;49.892;10.896;2024-02-14T06:00:20;4.73;;;2.73;;
1935;SDS011;969;49.892;10.896;2024-02-14T06:02:48;2.97;;;2.67;;
1935;SDS011;969;49.892;10.896;2024-02-14T06:05:14;2.67;;;2.33;;
1935;SDS011;969;49.892;10.896;2024-02-14T06:07:41;3.60;;;2.60;;
1935;SDS011;969;49.892;10.896;2024-02-14T06:10:07;2.63;;;2.43;;
1935;SDS011;969;49.892;10.896;2024-02-14T06:12:34;3.63;;;2.60;;
1935;SDS011;969;49.892;10.896;2024-02-14T06:15:00;2.53;;;2.30;;
1935;SDS011;969;49.892;10.896;2024-02-14T06:17:26;2.80;;;2.00;;
1935;SDS011;969;49.892;10.896;2024-02-14T06:19:52;2.80;;;2.27;;
1935;SDS011;969;49.892;10.896;2024-02-14T06:22:18;2.50;;;2.07;;
1935;SDS011;969;49.892;10.896;2024-02-14T06:24:44;3.00;;;2.43;;
1935;SDS011;969;49.892;10.896;2024-02-14T06:27:09;2.80;;;2.43;;
1935;SDS011;969;49.892;10.896;2024-02-14T06:29:35;2.37;;;2.13;;
1935;SDS011;969;49.892;10.896;2024-02-14T06:32:01;3.03;;;2.40;;
1935;SDS011;969;49.892;10.896;2024-02-14T06:34:27;3.30;;;2.30;;
1935;SDS011;969;49.892;10.896;2024-02-14T06:36:53;2.33;;;2.13;;
1935;SDS011;969;49.892;10.896;2024-02-14T06:39:19;2.77;;;2.10;;
1935;SDS011;969;49.892;10.896;2024-02-14T06:41:45;3.10;;;2.80;;
1935;SDS011;969;49.892;10.896;2024-02-14T06:44:12;3.10;;;2.20;;
1935;SDS011;969;49.892;10.896;2024-02-14T06:46:38;2.70;;;2.00;;
1935;SDS011;969;49.892;10.896;2024-02-14T06:49:04;2.40;;;2.17;;
1935;SDS011;969;49.892;10.896;2024-02-14T06:51:29;2.70;;;2.30;;
1935;SDS011;969;49.892;10.896;2024-02-14T06:53:55;2.90;;;2.17;;
1935;SDS011;969;49.892;10.896;2024-02-14T06:56:21;2.80;;;2.43;;
1935;SDS011;969;49.892;10.896;2024-02-14T06:58:47;2.67;;;2.00;;
1935;SDS011;969;49.892;10.896;2024-02-14T07:01:17;2.50;;;1.90;;
1935;SDS011;969;49.892;10.896;2024-02-14T07:03:47;2.30;;;2.10;;
1935;SDS011;969;49.892;10.896;2024-02-14T07:06:13;2.30;;;2.10;;
1935;SDS011;969;49.892;10.896;2024-02-14T07:08:40;2.40;;;2.10;;
1935;SDS011;969;49.892;10.896;2024-02-14T07:11:06;2.57;;;2.30;;
1935;SDS011;969;49.892;10.896;2024-02-14T07:13:32;3.63;;;2.37;;
1935;SDS011;969;49.892;10.896;2024-02-14T07:15:57;2.57;;;2.07;;
1935;SDS011;969;49.892;10.896;2024-02-14T07:18:23;2.80;;;2.10;;
1935;SDS011;969;49.892;10.896;2024-02-14T07:20:48;2.40;;;2.20;;
1935;SDS011;969;49.892;10.896;2024-02-14T07:23:14;2.73;;;2.20;;
1935;SDS011;969;49.892;10.896;2024-02-14T07:25:39;1.93;;;1.73;;
1935;SDS011;969;49.892;10.896;2024-02-14T07:28:05;2.50;;;2.27;;
1935;SDS011;969;49.892;10.896;2024-02-14T07:30:31;2.33;;;1.87;;
1935;SDS011;969;49.892;10.896;2024-02-14T07:32:56;2.63;;;2.30;;
1935;SDS011;969;49.892;10.896;2024-02-14T07:35:22;3.13;;;2.17;;
1935;SDS011;969;49.892;10.896;2024-02-14T07:37:48;3.40;;;2.10;;
1935;SDS011;969;49.892;10.896;2024-02-14T07:40:14;3.20;;;1.90;;
1935;SDS011;969;49.892;10.896;2024-02-14T07:42:40;3.20;;;2.40;;
1935;SDS011;969;49.892;10.896;2024-02-14T07:45:05;1.90;;;1.73;;
1935;SDS011;969;49.892;10.896;2024-02-14T07:47:31;2.70;;;2.03;;
1935;SDS011;969;49.892;10.896;2024-02-14T07:49:57;2.50;;;2.03;;
1935;SDS011;969;49.892;10.896;2024-02-14T07:52:22;2.10;;;1.90;;
1935;SDS011;969;49.892;10.896;2024-02-14T07:54:55;3.17;;;2.40;;
1935;SDS011;969;49.892;10.896;2024-02-14T07:57:23;2.00;;;1.80;;
1935;SDS011;969;49.892;10.896;2024-02-14T07:59:50;2.70;;;2.17;;
1935;SDS011;969;49.892;10.896;2024-02-14T08:02:17;2.60;;;2.30;;
1935;SDS011;969;49.892;10.896;2024-02-14T08:04:43;2.50;;;2.00;;
1935;SDS011;969;49.892;10.896;2024-02-14T08:07:09;2.07;;;1.87;;
1935;SDS011;969;49.892;10.896;2024-02-14T08:09:35;2.70;;;2.20;;
1935;SDS011;969;49.892;10.896;2024-02-14T08:12:01;2.30;;;2.10;;
1935;SDS011;969;49.892;10.896;2024-02-14T08:14:26;2.40;;;2.03;;
1935;SDS011;969;49.892;10.896;2024-02-14T08:16:52;3.20;;;2.20;;
1935;SDS011;969;49.892;10.896;2024-02-14T08:19:18;3.40;;;2.93;;
1935;SDS011;969;49.892;10.896;2024-02-14T08:21:44;2.73;;;2.20;;
1935;SDS011;969;49.892;10.896;2024-02-14T08:24:10;2.67;;;1.90;;
1935;SDS011;969;49.892;10.896;2024-02-14T08:26:35;2.17;;;1.67;;
1935;SDS011;969;49.892;10.896;2024-02-14T08:29:01;2.67;;;1.80;;
1935;SDS011;969;49.892;10.896;2024-02-14T08:31:28;3.20;;;2.40;;
1935;SDS011;969;49.892;10.896;2024-02-14T08:33:54;2.70;;;2.23;;
1935;SDS011;969;49.892;10.896;2024-02-14T08:36:19;2.37;;;2.03;;
1935;SDS011;969;49.892;10.896;2024-02-14T08:38:45;2.83;;;2.30;;
1935;SDS011;969;49.892;10.896;2024-02-14T08:41:11;2.93;;;2.47;;
1935;SDS011;969;49.892;10.896;2024-02-14T08:43:37;2.10;;;1.90;;
1935;SDS011;969;49.892;10.896;2024-02-14T08:46:03;4.30;;;2.50;;
1935;SDS011;969;49.892;10.896;2024-02-14T08:48:37;2.63;;;2.30;;
1935;SDS011;969;49.892;10.896;2024-02-14T08:51:10;2.30;;;1.87;;
1935;SDS011;969;49.892;10.896;2024-02-14T08:53:37;3.37;;;2.00;;
1935;SDS011;969;49.892;10.896;2024-02-14T08:56:02;2.37;;;2.07;;
1935;SDS011;969;49.892;10.896;2024-02-14T08:58:28;2.07;;;1.73;;
1935;SDS011;969;49.892;10.896;2024-02-14T09:00:54;3.03;;;2.73;;
1935;SDS011;969;49.892;10.896;2024-02-14T09:03:19;2.33;;;2.03;;
1935;SDS011;969;49.892;10.896;2024-02-14T09:05:45;2.13;;;1.93;;
1935;SDS011;969;49.892;10.896;2024-02-14T09:08:11;2.57;;;2.20;;
1935;SDS011;969;49.892;10.896;2024-02-14T09:10:38;3.77;;;2.00;;
1935;SDS011;969;49.892;10.896;2024-02-14T09:13:03;2.30;;;2.00;;
1935;SDS011;969;49.892;10.896;2024-02-14T09:15:29;3.87;;;2.37;;
1935;SDS011;969;49.892;10.896;2024-02-14T09:17:56;2.90;;;2.10;;
1935;SDS011;969;49.892;10.896;2024-02-14T09:20:22;2.00;;;1.77;;
1935;SDS011;969;49.892;10.896;2024-02-14T09:22:47;3.43;;;2.20;;
1935;SDS011;969;49.892;10.896;2024-02-14T09:25:13;2.47;;;2.10;;
1935;SDS011;969;49.892;10.896;2024-02-14T09:27:39;5.07;;;2.40;;
1935;SDS011;969;49.892;10.896;2024-02-14T09:30:06;3.27;;;2.30;;
1935;SDS011;969;49.892;10.896;2024-02-14T09:32:32;3.03;;;2.30;;
1935;SDS011;969;49.892;10.896;2024-02-14T09:34:58;2.33;;;2.03;;
1935;SDS011;969;49.892;10.896;2024-02-14T09:37:25;2.10;;;1.80;;
1935;SDS011;969;49.892;10.896;2024-02-14T09:39:51;2.13;;;1.93;;
1935;SDS011;969;49.892;10.896;2024-02-14T09:42:16;2.60;;;2.40;;
1935;SDS011;969;49.892;10.896;2024-02-14T09:44:47;2.37;;;1.73;;
1935;SDS011;969;49.892;10.896;2024-02-14T09:47:17;4.07;;;2.23;;
1935;SDS011;969;49.892;10.896;2024-02-14T09:49:44;3.23;;;2.43;;
1935;SDS011;969;49.892;10.896;2024-02-14T09:52:10;3.37;;;2.13;;
1935;SDS011;969;49.892;10.896;2024-02-14T09:54:37;3.63;;;2.43;;
1935;SDS011;969;49.892;10.896;2024-02-14T09:57:04;4.00;;;2.27;;
1935;SDS011;969;49.892;10.896;2024-02-14T09:59:31;4.00;;;2.30;;
1935;SDS011;969;49.892;10.896;2024-02-14T10:01:57;5.20;;;2.50;;
1935;SDS011;969;49.892;10.896;2024-02-14T10:04:23;2.47;;;2.13;;
1935;SDS011;969;49.892;10.896;2024-02-14T10:06:50;2.20;;;2.00;;
1935;SDS011;969;49.892;10.896;2024-02-14T10:09:22;2.97;;;2.20;;
1935;SDS011;969;49.892;10.896;2024-02-14T10:11:50;5.40;;;2.47;;
1935;SDS011;969;49.892;10.896;2024-02-14T10:14:16;3.80;;;2.07;;
1935;SDS011;969;49.892;10.896;2024-02-14T10:16:42;4.40;;;1.87;;
1935;SDS011;969;49.892;10.896;2024-02-14T10:19:25;3.27;;;2.20;;
1935;SDS011;969;49.892;10.896;2024-02-14T10:21:57;3.70;;;2.20;;
1935;SDS011;969;49.892;10.896;2024-02-14T10:24:25;2.57;;;1.90;;
1935;SDS011;969;49.892;10.896;2024-02-14T10:26:52;4.07;;;2.07;;
1935;SDS011;969;49.892;10.896;2024-02-14T10:29:19;3.20;;;2.17;;
1935;SDS011;969;49.892;10.896;2024-02-14T10:31:45;2.07;;;1.87;;
1935;SDS011;969;49.892;10.896;2024-02-14T10:34:11;3.23;;;2.07;;
1935;SDS011;969;49.892;10.896;2024-02-14T10:36:37;5.70;;;2.17;;
1935;SDS011;969;49.892;10.896;2024-02-14T10:39:05;3.73;;;2.77;;
1935;SDS011;969;49.892;10.896;2024-02-14T10:41:32;3.97;;;2.40;;
1935;SDS011;969;49.892;10.896;2024-02-14T10:44:03;2.50;;;2.07;;
1935;SDS011;969;49.892;10.896;2024-02-14T10:46:31;1.93;;;1.83;;
1935;SDS011;969;49.892;10.896;2024-02-14T10:48:59;2.63;;;2.10;;
1935;SDS011;969;49.892;10.896;2024-02-14T10:51:30;3.57;;;2.30;;
1935;SDS011;969;49.892;10.896;2024-02-14T10:53:58;2.03;;;1.73;;
1935;SDS011;969;49.892;10.896;2024-02-14T10:56:25;4.43;;;2.20;;
1935;SDS011;969;49.892;10.896;2024-02-14T10:58:55;3.40;;;2.37;;
1935;SDS011;969;49.892;10.896;2024-02-14T11:01:24;3.97;;;2.37;;
1935;SDS011;969;49.892;10.896;2024-02-14T11:03:51;2.60;;;2.10;;
1935;SDS011;969;49.892;10.896;2024-02-14T11:06:17;3.03;;;2.00;;
1935;SDS011;969;49.892;10.896;2024-02-14T11:08:55;2.60;;;1.83;;
1935;SDS011;969;49.892;10.896;2024-02-14T11:11:21;2.90;;;1.83;;
1935;SDS011;969;49.892;10.896;2024-02-14T11:13:51;3.27;;;2.20;;
1935;SDS011;969;49.892;10.896;2024-02-14T11:16:27;2.83;;;2.10;;
1935;SDS011;969;49.892;10.896;2024-02-14T11:19:07;5.33;;;2.47;;
1935;SDS011;969;49.892;10.896;2024-02-14T11:21:35;3.70;;;2.30;;
1935;SDS011;969;49.892;10.896;2024-02-14T11:24:05;2.37;;;2.10;;
1935;SDS011;969;49.892;10.896;2024-02-14T11:26:38;2.30;;;1.90;;
1935;SDS011;969;49.892;10.896;2024-02-14T11:29:17;2.63;;;1.80;;
1935;SDS011;969;49.892;10.896;2024-02-14T11:31:44;4.20;;;2.30;;
1935;SDS011;969;49.892;10.896;2024-02-14T11:34:16;2.57;;;2.30;;
1935;SDS011;969;49.892;10.896;2024-02-14T11:36:42;3.20;;;2.70;;
1935;SDS011;969;49.892;10.896;2024-02-14T11:39:10;2.50;;;1.87;;
1935;SDS011;969;49.892;10.896;2024-02-14T11:41:37;2.77;;;2.03;;
1935;SDS011;969;49.892;10.896;2024-02-14T11:44:06;2.90;;;2.00;;
1935;SDS011;969;49.892;10.896;2024-02-14T11:46:32;3.63;;;1.90;;
1935;SDS011;969;49.892;10.896;2024-02-14T11:48:59;3.10;;;2.20;;
1935;SDS011;969;49.892;10.896;2024-02-14T11:51:27;2.90;;;2.07;;
1935;SDS011;969;49.892;10.896;2024-02-14T11:53:53;4.13;;;2.23;;
1935;SDS011;969;49.892;10.896;2024-02-14T11:56:21;2.97;;;1.97;;
1935;SDS011;969;49.892;10.896;2024-02-14T11:58:48;2.03;;;1.77;;
1935;SDS011;969;49.892;10.896;2024-02-14T12:01:16;2.50;;;1.70;;
1935;SDS011;969;49.892;10.896;2024-02-14T12:03:43;2.43;;;1.80;;
1935;SDS011;969;49.892;10.896;2024-02-14T12:06:09;2.73;;;1.70;;
1935;SDS011;969;49.892;10.896;2024-02-14T12:08:35;3.00;;;2.70;;
1935;SDS011;969;49.892;10.896;2024-02-14T12:11:02;2.67;;;2.10;;
1935;SDS011;969;49.892;10.896;2024-02-14T12:13:28;4.43;;;2.43;;
1935;SDS011;969;49.892;10.896;2024-02-14T12:15:57;3.97;;;2.23;;
1935;SDS011;969;49.892;10.896;2024-02-14T12:18:23;2.90;;;2.00;;
1935;SDS011;969;49.892;10.896;2024-02-14T12:20:48;2.90;;;2.07;;
1935;SDS011;969;49.892;10.896;2024-02-14T12:23:16;4.60;;;1.90;;
1935;SDS011;969;49.892;10.896;2024-02-14T12:25:43;3.43;;;2.10;;
1935;SDS011;969;49.892;10.896;2024-02-14T12:28:13;2.93;;;1.83;;
1935;SDS011;969;49.892;10.896;2024-02-14T12:30:46;2.50;;;1.70;;
1935;SDS011;969;49.892;10.896;2024-02-14T12:33:15;3.20;;;1.97;;
1935;SDS011;969;49.892;10.896;2024-02-14T12:35:44;2.30;;;1.70;;
1935;SDS011;969;49.892;10.896;2024-02-14T12:38:12;2.33;;;1.97;;
1935;SDS011;969;49.892;10.896;2024-02-14T12:40:39;3.40;;;2.10;;
1935;SDS011;969;49.892;10.896;2024-02-14T12:43:09;2.73;;;1.97;;
1935;SDS011;969;49.892;10.896;2024-02-14T12:45:40;3.10;;;2.47;;
1935;SDS011;969;49.892;10.896;2024-02-14T12:48:07;5.07;;;2.77;;
1935;SDS011;969;49.892;10.896;2024-02-14T12:50:33;3.70;;;2.20;;
1935;SDS011;969;49.892;10.896;2024-02-14T12:53:00;2.87;;;1.80;;
1935;SDS011;969;49.892;10.896;2024-02-14T12:55:26;3.40;;;2.57;;
1935;SDS011;969;49.892;10.896;2024-02-14T12:57:53;3.87;;;2.43;;
1935;SDS011;969;49.892;10.896;2024-02-14T13:00:22;4.57;;;2.40;;
1935;SDS011;969;49.892;10.896;2024-02-14T13:02:49;2.50;;;1.80;;
1935;SDS011;969;49.892;10.896;2024-02-14T13:05:15;3.10;;;2.40;;
1935;SDS011;969;49.892;10.896;2024-02-14T13:07:43;2.70;;;1.90;;
1935;SDS011;969;49.892;10.896;2024-02-14T13:10:09;3.87;;;2.43;;
1935;SDS011;969;49.892;10.896;2024-02-14T13:12:35;2.93;;;1.83;;
1935;SDS011;969;49.892;10.896;2024-02-14T13:15:02;5.00;;;2.10;;
1935;SDS011;969;49.892;10.896;2024-02-14T13:17:28;2.70;;;1.90;;
1935;SDS011;969;49.892;10.896;2024-02-14T13:19:54;6.40;;;2.37;;
1935;SDS011;969;49.892;10.896;2024-02-14T13:22:20;2.43;;;1.90;;
1935;SDS011;969;49.892;10.896;2024-02-14T13:24:45;2.83;;;1.90;;
1935;SDS011;969;49.892;10.896;2024-02-14T13:27:11;3.50;;;2.57;;
1935;SDS011;969;49.892;10.896;2024-02-14T13:29:37;3.07;;;2.20;;
1935;SDS011;969;49.892;10.896;2024-02-14T13:32:03;3.27;;;2.03;;
1935;SDS011;969;49.892;10.896;2024-02-14T13:34:32;3.10;;;1.97;;
1935;SDS011;969;49.892;10.896;2024-02-14T13:36:58;4.07;;;2.47;;
1935;SDS011;969;49.892;10.896;2024-02-14T13:39:24;2.90;;;2.20;;
1935;SDS011;969;49.892;10.896;2024-02-14T13:41:50;4.17;;;2.63;;
1935;SDS011;969;49.892;10.896;2024-02-14T13:44:17;5.30;;;2.23;;
1935;SDS011;969;49.892;10.896;2024-02-14T13:46:43;2.40;;;2.20;;
1935;SDS011;969;49.892;10.896;2024-02-14T13:49:15;2.60;;;2.37;;
1935;SDS011;969;49.892;10.896;2024-02-14T13:51:46;2.70;;;2.10;;
1935;SDS011;969;49.892;10.896;2024-02-14T13:54:15;2.80;;;2.03;;
1935;SDS011;969;49.892;10.896;2024-02-14T13:56:41;5.60;;;2.93;;
1935;SDS011;969;49.892;10.896;2024-02-14T13:59:06;4.63;;;2.40;;
1935;SDS011;969;49.892;10.896;2024-02-14T14:01:32;4.50;;;2.77;;
1935;SDS011;969;49.892;10.896;2024-02-14T14:03:57;2.77;;;2.23;;
1935;SDS011;969;49.892;10.896;2024-02-14T14:06:23;4.43;;;2.80;;
1935;SDS011;969;49.892;10.896;2024-02-14T14:08:49;4.63;;;2.30;;
1935;SDS011;969;49.892;10.896;2024-02-14T14:11:15;4.57;;;2.87;;
1935;SDS011;969;49.892;10.896;2024-02-14T14:13:41;2.80;;;2.17;;
1935;SDS011;969;49.892;10.896;2024-02-14T14:16:07;3.20;;;2.20;;
1935;SDS011;969;49.892;10.896;2024-02-14T14:18:33;4.90;;;3.63;;
1935;SDS011;969;49.892;10.896;2024-02-14T14:21:00;3.03;;;2.00;;
1935;SDS011;969;49.892;10.896;2024-02-14T14:23:25;5.60;;;2.37;;
1935;SDS011;969;49.892;10.896;2024-02-14T14:25:51;2.77;;;2.17;;
1935;SDS011;969;49.892;10.896;2024-02-14T14:28:16;4.23;;;2.37;;
1935;SDS011;969;49.892;10.896;2024-02-14T14:30:44;3.27;;;2.50;;
1935;SDS011;969;49.892;10.896;2024-02-14T14:33:10;4.20;;;2.60;;
1935;SDS011;969;49.892;10.896;2024-02-14T14:35:36;4.53;;;2.73;;
1935;SDS011;969;49.892;10.896;2024-02-14T14:38:02;5.63;;;2.60;;
1935;SDS011;969;49.892;10.896;2024-02-14T14:40:29;6.43;;;2.87;;
1935;SDS011;969;49.892;10.896;2024-02-14T14:42:54;4.53;;;3.77;;
1935;SDS011;969;49.892;10.896;2024-02-14T14:45:20;6.33;;;3.10;;
1935;SDS011;969;49.892;10.896;2024-02-14T14:47:46;4.60;;;3.23;;
1935;SDS011;969;49.892;10.896;2024-02-14T14:50:11;2.90;;;2.60;;
1935;SDS011;969;49.892;10.896;2024-02-14T14:52:41;4.20;;;2.97;;
1935;SDS011;969;49.892;10.896;2024-02-14T14:55:08;6.63;;;3.17;;
1935;SDS011;969;49.892;10.896;2024-02-14T14:57:35;5.30;;;2.90;;
1935;SDS011;969;49.892;10.896;2024-02-14T15:00:06;4.50;;;2.93;;
1935;SDS011;969;49.892;10.896;2024-02-14T15:02:34;4.40;;;2.93;;
1935;SDS011;969;49.892;10.896;2024-02-14T15:05:00;3.97;;;2.43;;
1935;SDS011;969;49.892;10.896;2024-02-14T15:07:26;4.87;;;2.20;;
1935;SDS011;969;49.892;10.896;2024-02-14T15:09:52;5.20;;;3.03;;
1935;SDS011;969;49.892;10.896;2024-02-14T15:12:17;3.83;;;2.93;;